createdAt,value
2023-01-06T00:01:25.656Z,99322.66
2023-01-06T00:03:54.959Z,99319.16
2023-01-06T00:06:27.597Z,99315.16
2023-01-06T00:08:56.130Z,99316.88
2023-01-06T00:11:24.106Z,99311.13
2023-01-06T00:13:52.177Z,99304.22
2023-01-06T00:16:22.031Z,99308.09
2023-01-06T00:18:50.081Z,99307.06
2023-01-06T00:21:18.041Z,99303.00
2023-01-06T00:23:47.127Z,99302.38
2023-01-06T00:26:14.950Z,99302.25
2023-01-06T00:28:43.701Z,99304.97
2023-01-06T00:31:13.757Z,99303.16
2023-01-06T00:33:42.571Z,99300.25
2023-01-06T00:36:12.278Z,99294.13
2023-01-06T00:38:40.507Z,99293.91
2023-01-06T00:41:27.420Z,99291.28
2023-01-06T00:43:56.438Z,99282.38
2023-01-06T00:46:26.961Z,99276.59
2023-01-06T00:49:04.769Z,99280.00
2023-01-06T00:51:35.922Z,99274.72
2023-01-06T00:54:04.468Z,99275.00
2023-01-06T00:56:38.686Z,99273.78
2023-01-06T00:59:09.391Z,99279.22
2023-01-06T01:01:38.312Z,99273.38
2023-01-06T01:04:07.467Z,99278.31
2023-01-06T01:06:36.265Z,99281.69
2023-01-06T01:09:05.312Z,99277.13
2023-01-06T01:11:50.499Z,99266.56
2023-01-06T01:14:21.544Z,99271.13
2023-01-06T01:16:49.434Z,99272.44
2023-01-06T01:19:18.345Z,99272.47
2023-01-06T01:21:46.682Z,99265.84
2023-01-06T01:24:15.294Z,99279.63
2023-01-06T01:26:43.361Z,99280.47
2023-01-06T01:29:12.816Z,99272.44
2023-01-06T01:31:42.037Z,99281.19
2023-01-06T01:34:11.949Z,99274.97
2023-01-06T01:36:41.408Z,99276.69
2023-01-06T01:39:09.835Z,99259.34
2023-01-06T01:41:37.846Z,99260.94
2023-01-06T01:44:44.227Z,99262.47
2023-01-06T01:47:17.050Z,99262.28
2023-01-06T01:49:48.339Z,99264.91
2023-01-06T01:52:17.441Z,99256.06
2023-01-06T01:54:46.060Z,99254.88
2023-01-06T01:57:17.635Z,99254.13
2023-01-06T01:59:48.500Z,99261.06
2023-01-06T02:02:19.274Z,99258.25
2023-01-06T02:04:50.870Z,99259.78
2023-01-06T02:07:19.875Z,99259.44
2023-01-06T02:09:56.113Z,99251.13
2023-01-06T02:12:23.967Z,99248.44
2023-01-06T02:14:51.751Z,99258.59
2023-01-06T02:17:49.793Z,99249.25
2023-01-06T02:20:36.501Z,99247.78
2023-01-06T02:23:40.572Z,99246.97
2023-01-06T02:26:36.596Z,99253.38
2023-01-06T02:29:51.975Z,99244.47
2023-01-06T02:32:36.408Z,99250.69
2023-01-06T02:35:17.935Z,99244.63
2023-01-06T02:37:57.317Z,99246.34
2023-01-06T02:40:38.999Z,99241.72
2023-01-06T02:43:16.888Z,99240.00
2023-01-06T02:45:56.520Z,99239.91
2023-01-06T02:48:34.239Z,99236.38
2023-01-06T02:51:07.957Z,99234.31
2023-01-06T02:53:43.684Z,99229.38
2023-01-06T02:56:12.268Z,99226.94
2023-01-06T02:58:48.487Z,99225.31
2023-01-06T03:01:21.795Z,99224.25
2023-01-06T03:03:52.796Z,99236.56
2023-01-06T03:06:27.629Z,99234.41
2023-01-06T03:08:57.267Z,99236.59
2023-01-06T03:11:27.647Z,99241.09
2023-01-06T03:14:00.718Z,99235.34
2023-01-06T03:16:29.315Z,99230.97
2023-01-06T03:18:59.343Z,99227.19
2023-01-06T03:21:35.192Z,99224.44
2023-01-06T03:24:05.482Z,99222.84
2023-01-06T03:26:33.843Z,99215.94
2023-01-06T03:29:03.620Z,99221.59
2023-01-06T03:31:38.320Z,99214.31
2023-01-06T03:34:16.822Z,99218.59
2023-01-06T03:36:54.620Z,99220.56
2023-01-06T03:39:32.717Z,99210.97
2023-01-06T03:42:35.905Z,99209.81
2023-01-06T03:45:18.354Z,99221.50
2023-01-06T03:47:54.913Z,99212.38
2023-01-06T03:50:29.902Z,99214.53
2023-01-06T03:53:04.364Z,99218.88
2023-01-06T03:55:37.267Z,99218.59
2023-01-06T03:58:08.017Z,99210.56
2023-01-06T04:00:38.785Z,99218.69
2023-01-06T04:03:10.532Z,99224.13
2023-01-06T04:05:40.986Z,99223.13
2023-01-06T04:08:09.747Z,99221.13
2023-01-06T04:10:39.072Z,99217.00
2023-01-06T04:13:07.168Z,99219.44
2023-01-06T04:15:37.465Z,99211.97
2023-01-06T04:18:08.035Z,99214.16
2023-01-06T04:20:40.137Z,99219.34
2023-01-06T04:23:15.901Z,99205.44
2023-01-06T04:25:45.131Z,99221.66
2023-01-06T04:28:36.281Z,99220.81
2023-01-06T04:31:04.090Z,99217.88
2023-01-06T04:33:35.707Z,99213.66
2023-01-06T04:36:09.980Z,99209.53
2023-01-06T04:38:40.335Z,99208.88
2023-01-06T04:41:08.163Z,99209.78
2023-01-06T04:43:36.040Z,99211.53
2023-01-06T04:46:03.863Z,99207.94
2023-01-06T04:48:31.849Z,99204.53
2023-01-06T04:51:03.268Z,99200.78
2023-01-06T04:53:34.671Z,99219.53
2023-01-06T04:56:04.497Z,99204.91
2023-01-06T04:58:33.267Z,99203.69
2023-01-06T05:01:02.261Z,99200.31
2023-01-06T05:03:30.531Z,99205.28
2023-01-06T05:06:02.375Z,99193.13
2023-01-06T05:08:32.982Z,99192.41
2023-01-06T05:11:01.491Z,99194.16
2023-01-06T05:13:29.428Z,99187.56
2023-01-06T05:15:57.304Z,99187.59
2023-01-06T05:18:25.175Z,99191.16
2023-01-06T05:20:53.256Z,99180.41
2023-01-06T05:23:21.372Z,99187.78
2023-01-06T05:25:53.054Z,99198.16
2023-01-06T05:28:21.308Z,99197.28
2023-01-06T05:30:49.517Z,99199.66
2023-01-06T05:33:17.686Z,99192.47
2023-01-06T05:35:45.436Z,99192.44
2023-01-06T05:38:13.299Z,99193.47
2023-01-06T05:40:41.194Z,99186.00
2023-01-06T05:43:10.386Z,99196.75
2023-01-06T05:45:40.385Z,99189.63
2023-01-06T05:48:08.298Z,99182.94
2023-01-06T05:50:36.114Z,99189.44
2023-01-06T05:53:03.948Z,99198.78
2023-01-06T05:55:31.869Z,99189.25
2023-01-06T05:57:59.685Z,99179.63
2023-01-06T06:00:28.881Z,99180.03
2023-01-06T06:02:57.026Z,99166.84
2023-01-06T06:05:24.917Z,99184.56
2023-01-06T06:07:55.734Z,99186.81
2023-01-06T06:10:24.348Z,99193.25
2023-01-06T06:12:52.807Z,99182.88
2023-01-06T06:15:20.794Z,99189.28
2023-01-06T06:17:49.904Z,99179.19
2023-01-06T06:20:17.902Z,99178.72
2023-01-06T06:22:45.709Z,99191.28
2023-01-06T06:25:13.546Z,99187.66
2023-01-06T06:27:41.412Z,99189.44
2023-01-06T06:30:10.013Z,99191.66
2023-01-06T06:32:37.864Z,99198.53
2023-01-06T06:35:08.278Z,99198.69
2023-01-06T06:37:36.133Z,99193.13
2023-01-06T06:40:04.423Z,99186.81
2023-01-06T06:42:32.187Z,99188.34
2023-01-06T06:45:00.025Z,99184.47
2023-01-06T06:47:28.070Z,99187.41
2023-01-06T06:49:56.059Z,99190.78
2023-01-06T06:52:25.204Z,99195.31
2023-01-06T06:54:55.071Z,99204.47
2023-01-06T06:57:22.904Z,99204.00
2023-01-06T06:59:50.792Z,99205.94
2023-01-06T07:02:18.816Z,99205.09
2023-01-06T07:04:46.958Z,99209.44
2023-01-06T07:07:14.826Z,99208.13
2023-01-06T07:09:43.950Z,99210.19
2023-01-06T07:12:11.797Z,99216.47
2023-01-06T07:14:39.637Z,99234.16
2023-01-06T07:17:07.430Z,99233.25
2023-01-06T07:19:35.296Z,99236.69
2023-01-06T07:22:03.140Z,99245.56
2023-01-06T07:24:31.035Z,99245.56
2023-01-06T07:27:02.786Z,99247.56
2023-01-06T07:29:31.211Z,99253.81
2023-01-06T07:32:01.371Z,99249.44
2023-01-06T07:34:29.198Z,99256.50
2023-01-06T07:36:59.131Z,99255.75
2023-01-06T07:39:26.963Z,99262.81
2023-01-06T07:41:54.993Z,99271.94
2023-01-06T07:44:24.245Z,99270.91
2023-01-06T07:46:52.139Z,99275.66
2023-01-06T07:49:19.991Z,99278.69
2023-01-06T07:51:47.785Z,99278.66
2023-01-06T07:54:16.170Z,99278.88
2023-01-06T07:56:44.428Z,99281.50
2023-01-06T07:59:12.472Z,99282.44
2023-01-06T08:01:41.942Z,99281.31
2023-01-06T08:04:09.954Z,99293.59
2023-01-06T08:06:40.689Z,99292.22
2023-01-06T08:09:09.067Z,99281.50
2023-01-06T08:11:36.903Z,99286.38
2023-01-06T08:14:04.855Z,99284.91
2023-01-06T08:16:32.714Z,99286.75
2023-01-06T08:19:01.823Z,99284.84
2023-01-06T08:21:29.599Z,99281.50
2023-01-06T08:23:57.391Z,99288.88
2023-01-06T08:26:25.179Z,99295.47
2023-01-06T08:28:53.823Z,99299.44
2023-01-06T08:31:22.695Z,99305.91
2023-01-06T08:33:51.753Z,99299.91
2023-01-06T08:36:24.512Z,99307.94
2023-01-06T08:38:52.804Z,99302.19
2023-01-06T08:41:22.799Z,99294.84
2023-01-06T08:43:50.755Z,99306.00
2023-01-06T08:46:20.738Z,99302.97
2023-01-06T08:48:49.328Z,99308.63
2023-01-06T08:51:23.708Z,99308.28
2023-01-06T08:53:52.329Z,99309.63
2023-01-06T08:56:22.549Z,99307.72
2023-01-06T08:58:53.189Z,99310.94
2023-01-06T09:01:22.872Z,99310.34
2023-01-06T09:03:50.975Z,99312.09
2023-01-06T09:06:21.402Z,99321.88
2023-01-06T09:08:49.849Z,99316.41
2023-01-06T09:11:18.812Z,99322.09
2023-01-06T09:13:47.665Z,99321.97
2023-01-06T09:16:15.579Z,99327.06
2023-01-06T09:18:48.321Z,99314.97
2023-01-06T09:21:17.237Z,99324.25
2023-01-06T09:23:49.433Z,99312.06
2023-01-06T09:26:18.732Z,99323.94
2023-01-06T09:28:47.496Z,99327.41
2023-01-06T09:31:15.756Z,99328.38
2023-01-06T09:33:43.734Z,99328.31
2023-01-06T09:36:11.650Z,99339.84
2023-01-06T09:38:39.448Z,99336.94
2023-01-06T09:41:28.097Z,99341.16
2023-01-06T09:44:03.280Z,99343.31
2023-01-06T09:46:35.920Z,99338.59
2023-01-06T09:49:10.500Z,99348.22
2023-01-06T09:51:39.471Z,99344.63
2023-01-06T09:54:16.596Z,99347.91
2023-01-06T09:56:52.347Z,99343.81
2023-01-06T09:59:26.285Z,99340.38
2023-01-06T10:01:55.223Z,99333.94
2023-01-06T10:04:27.283Z,99340.50
2023-01-06T10:07:07.585Z,99325.88
2023-01-06T10:09:45.085Z,99330.13
2023-01-06T10:12:27.804Z,99322.47
2023-01-06T10:15:05.729Z,99324.63
2023-01-06T10:17:50.775Z,99317.53
2023-01-06T10:20:44.685Z,99304.38
2023-01-06T10:23:32.091Z,99298.97
2023-01-06T10:26:07.118Z,99304.38
2023-01-06T10:28:39.718Z,99291.72
2023-01-06T10:31:12.006Z,99283.06
2023-01-06T10:33:44.492Z,99283.69
2023-01-06T10:36:14.583Z,99282.91
2023-01-06T10:38:45.327Z,99283.78
2023-01-06T10:41:20.634Z,99279.78
2023-01-06T10:43:49.942Z,99265.06
2023-01-06T10:46:18.247Z,99268.22
2023-01-06T10:48:49.323Z,99266.56
2023-01-06T10:51:35.811Z,99259.84
2023-01-06T10:54:09.260Z,99258.41
2023-01-06T10:56:38.927Z,99260.84
2023-01-06T10:59:10.929Z,99256.47
2023-01-06T11:01:50.370Z,99259.19
2023-01-06T11:04:20.146Z,99257.09
2023-01-06T11:06:52.333Z,99257.66
2023-01-06T11:09:27.092Z,99255.50
2023-01-06T11:11:56.825Z,99250.84
2023-01-06T11:14:31.049Z,99261.09
2023-01-06T11:17:02.522Z,99258.69
2023-01-06T11:19:36.958Z,99255.31
2023-01-06T11:22:05.536Z,99250.16
2023-01-06T11:24:51.191Z,99242.94
2023-01-06T11:27:19.178Z,99245.38
2023-01-06T11:29:48.493Z,99244.47
2023-01-06T11:32:21.318Z,99236.84
2023-01-06T11:34:55.168Z,99242.19
2023-01-06T11:37:32.370Z,99236.31
2023-01-06T11:40:10.896Z,99237.69
2023-01-06T11:42:42.985Z,99233.53
2023-01-06T11:45:34.191Z,99241.94
2023-01-06T11:48:02.656Z,99242.31
2023-01-06T11:50:30.670Z,99239.53
2023-01-06T11:53:03.052Z,99243.03
2023-01-06T11:55:31.002Z,99238.19
2023-01-06T11:58:04.408Z,99236.06
2023-01-06T12:00:42.760Z,99242.59
2023-01-06T12:03:18.443Z,99238.28
2023-01-06T12:05:52.953Z,99239.00
2023-01-06T12:08:24.719Z,99229.28
2023-01-06T12:10:58.154Z,99232.34
2023-01-06T12:13:27.149Z,99226.84
2023-01-06T12:16:02.184Z,99230.63
2023-01-06T12:18:34.351Z,99229.66
2023-01-06T12:21:04.884Z,99223.44
2023-01-06T12:23:35.926Z,99228.09
2023-01-06T12:26:06.012Z,99229.31
2023-01-06T12:28:36.663Z,99225.09
2023-01-06T12:31:11.466Z,99223.50
2023-01-06T12:33:44.493Z,99214.13
2023-01-06T12:36:17.585Z,99206.25
2023-01-06T12:38:55.168Z,99202.97
2023-01-06T12:41:27.920Z,99208.88
2023-01-06T12:44:02.041Z,99204.31
2023-01-06T12:46:38.871Z,99204.31
2023-01-06T12:49:14.709Z,99202.22
2023-01-06T12:51:47.372Z,99199.00
2023-01-06T12:54:21.472Z,99199.91
2023-01-06T12:57:02.940Z,99206.50
2023-01-06T12:59:45.416Z,99203.56
2023-01-06T13:02:27.321Z,99195.88
2023-01-06T13:05:07.220Z,99202.97
2023-01-06T13:07:43.865Z,99206.47
2023-01-06T13:10:21.181Z,99206.56
2023-01-06T13:13:00.687Z,99209.97
2023-01-06T13:15:30.416Z,99200.81
2023-01-06T13:18:13.511Z,99206.84
2023-01-06T13:20:45.723Z,99209.03
2023-01-06T13:23:40.057Z,99205.66
2023-01-06T13:26:21.176Z,99204.41
2023-01-06T13:28:59.103Z,99203.34
2023-01-06T13:31:44.853Z,99194.66
2023-01-06T13:34:43.325Z,99186.72
2023-01-06T13:37:27.269Z,99190.69
2023-01-06T13:39:59.041Z,99193.06
2023-01-06T13:42:35.632Z,99189.97
2023-01-06T13:45:06.429Z,99187.53
2023-01-06T13:47:36.067Z,99189.25
2023-01-06T13:50:06.558Z,99186.53
2023-01-06T13:52:35.454Z,99193.78
2023-01-06T13:55:06.573Z,99192.78
2023-01-06T13:57:37.918Z,99196.00
2023-01-06T14:00:27.025Z,99202.47
2023-01-06T14:03:17.837Z,99213.63
2023-01-06T14:05:55.492Z,99207.97
2023-01-06T14:08:25.308Z,99207.69
2023-01-06T14:11:00.798Z,99218.69
2023-01-06T14:13:33.098Z,99216.19
2023-01-06T14:16:05.353Z,99214.16
2023-01-06T14:18:38.263Z,99225.81
2023-01-06T14:21:17.602Z,99224.25
2023-01-06T14:23:55.054Z,99222.38
2023-01-06T14:26:43.606Z,99234.88
2023-01-06T14:29:56.806Z,99225.59
2023-01-06T14:33:02.373Z,99233.56
2023-01-06T14:35:34.294Z,99224.50
2023-01-06T14:38:06.937Z,99231.16
2023-01-06T14:40:39.567Z,99234.47
2023-01-06T14:43:29.721Z,99238.56
2023-01-06T14:46:03.032Z,99238.38
2023-01-06T14:48:38.236Z,99238.13
2023-01-06T14:51:07.002Z,99244.19
2023-01-06T14:53:42.906Z,99236.63
2023-01-06T14:56:19.021Z,99230.69
2023-01-06T14:58:47.505Z,99235.63
2023-01-06T15:01:23.163Z,99245.34
2023-01-06T15:03:57.058Z,99235.59
2023-01-06T15:06:26.718Z,99239.06
2023-01-06T15:08:57.761Z,99246.44
2023-01-06T15:11:29.038Z,99255.44
2023-01-06T15:13:57.759Z,99263.16
2023-01-06T15:16:36.477Z,99258.94
2023-01-06T15:19:07.876Z,99258.06
2023-01-06T15:21:40.039Z,99248.94
2023-01-06T15:24:20.374Z,99250.81
2023-01-06T15:26:48.709Z,99246.63
2023-01-06T15:29:18.711Z,99253.31
2023-01-06T15:31:48.314Z,99249.63
2023-01-06T15:34:19.121Z,99251.09
2023-01-06T15:36:49.395Z,99262.31
2023-01-06T15:39:26.311Z,99261.34
2023-01-06T15:41:54.898Z,99264.22
2023-01-06T15:44:27.521Z,99253.84
2023-01-06T15:46:59.216Z,99257.34
2023-01-06T15:49:30.586Z,99265.06
2023-01-06T15:52:02.690Z,99264.56
2023-01-06T15:54:33.042Z,99265.81
2023-01-06T15:57:15.278Z,99261.25
2023-01-06T15:59:54.299Z,99262.31
2023-01-06T16:02:27.161Z,99265.94
2023-01-06T16:04:55.173Z,99268.66
2023-01-06T16:07:39.855Z,99269.97
2023-01-06T16:10:34.602Z,99265.50
2023-01-06T16:13:15.015Z,99267.63
2023-01-06T16:15:47.421Z,99279.78
2023-01-06T16:18:15.584Z,99273.97
2023-01-06T16:20:43.791Z,99279.47
2023-01-06T16:23:25.082Z,99275.25
2023-01-06T16:26:04.574Z,99268.88
2023-01-06T16:28:32.574Z,99277.69
2023-01-06T16:31:08.957Z,99278.84
2023-01-06T16:33:40.571Z,99270.81
2023-01-06T16:36:16.648Z,99271.00
2023-01-06T16:38:44.960Z,99273.97
2023-01-06T16:41:19.149Z,99265.72
2023-01-06T16:43:47.460Z,99269.22
2023-01-06T16:46:21.235Z,99274.38
2023-01-06T16:48:50.883Z,99270.38
2023-01-06T16:51:19.144Z,99275.03
2023-01-06T16:53:47.477Z,99278.00
2023-01-06T16:56:22.740Z,99277.34
2023-01-06T16:58:51.437Z,99284.88
2023-01-06T17:01:20.935Z,99280.25
2023-01-06T17:03:55.650Z,99274.81
2023-01-06T17:06:27.359Z,99278.88
2023-01-06T17:08:57.646Z,99272.06
2023-01-06T17:11:31.008Z,99273.88
2023-01-06T17:14:01.723Z,99273.00
2023-01-06T17:16:32.634Z,99274.94
2023-01-06T17:19:07.818Z,99272.41
2023-01-06T17:21:38.722Z,99269.97
2023-01-06T17:24:12.554Z,99267.84
2023-01-06T17:26:50.081Z,99268.78
2023-01-06T17:29:21.071Z,99267.19
2023-01-06T17:31:51.227Z,99268.03
2023-01-06T17:34:22.254Z,99261.22
2023-01-06T17:36:53.512Z,99263.81
2023-01-06T17:39:24.330Z,99264.75
2023-01-06T17:42:02.034Z,99262.66
2023-01-06T17:44:36.717Z,99268.22
2023-01-06T17:47:12.845Z,99273.44
2023-01-06T17:49:40.807Z,99275.13
2023-01-06T17:52:16.691Z,99277.06
2023-01-06T17:55:10.491Z,99273.47
2023-01-06T17:57:46.208Z,99273.31
2023-01-06T18:00:22.520Z,99277.88
2023-01-06T18:02:56.479Z,99272.72
2023-01-06T18:06:00.575Z,99275.44
2023-01-06T18:08:31.913Z,99273.53
2023-01-06T18:11:20.078Z,99277.78
2023-01-06T18:13:51.658Z,99273.69
2023-01-06T18:16:30.680Z,99279.41
2023-01-06T18:19:05.615Z,99268.03
2023-01-06T18:21:39.244Z,99279.16
2023-01-06T18:24:19.666Z,99283.91
2023-01-06T18:26:51.654Z,99277.53
2023-01-06T18:29:23.977Z,99278.25
2023-01-06T18:31:53.746Z,99279.56
2023-01-06T18:34:40.266Z,99283.63
2023-01-06T18:37:08.313Z,99278.81
2023-01-06T18:39:41.533Z,99278.28
2023-01-06T18:42:26.877Z,99278.94
2023-01-06T18:45:03.163Z,99278.00
2023-01-06T18:47:32.524Z,99277.16
2023-01-06T18:50:24.163Z,99280.31
2023-01-06T18:52:53.142Z,99290.69
2023-01-06T18:55:27.499Z,99279.88
2023-01-06T18:57:59.188Z,99280.75
2023-01-06T19:00:37.269Z,99276.50
2023-01-06T19:03:31.053Z,99278.22
2023-01-06T19:06:43.354Z,99272.84
2023-01-06T19:09:29.677Z,99281.00
2023-01-06T19:12:17.921Z,99291.25
2023-01-06T19:14:50.786Z,99294.75
2023-01-06T19:17:23.990Z,99287.75
2023-01-06T19:19:53.375Z,99286.50
2023-01-06T19:22:24.752Z,99292.69
2023-01-06T19:24:57.970Z,99286.69
2023-01-06T19:27:32.251Z,99285.53
2023-01-06T19:30:34.508Z,99289.53
2023-01-06T19:33:19.331Z,99299.69
2023-01-06T19:35:47.686Z,99291.34
2023-01-06T19:38:24.730Z,99293.53
2023-01-06T19:40:54.020Z,99291.00
2023-01-06T19:43:25.662Z,99288.13
2023-01-06T19:45:56.113Z,99282.44
2023-01-06T19:48:27.866Z,99285.31
2023-01-06T19:51:03.578Z,99284.91
2023-01-06T19:53:39.765Z,99271.47
2023-01-06T19:56:17.753Z,99279.47
2023-01-06T19:58:52.585Z,99279.94
2023-01-06T20:01:21.024Z,99282.00
2023-01-06T20:03:54.242Z,99289.81
2023-01-06T20:06:23.566Z,99288.38
2023-01-06T20:08:53.643Z,99285.66
2023-01-06T20:11:22.848Z,99281.56
2023-01-06T20:13:51.145Z,99283.91
2023-01-06T20:16:19.198Z,99280.53
2023-01-06T20:18:47.077Z,99277.69
2023-01-06T20:21:19.032Z,99284.28
2023-01-06T20:23:47.080Z,99274.13
2023-01-06T20:26:14.992Z,99270.94
2023-01-06T20:28:42.904Z,99270.72
2023-01-06T20:31:10.936Z,99276.44
2023-01-06T20:33:38.796Z,99273.38
2023-01-06T20:36:08.144Z,99269.66
2023-01-06T20:38:37.463Z,99267.88
2023-01-06T20:41:05.687Z,99270.63
2023-01-06T20:43:33.540Z,99265.22
2023-01-06T20:46:01.543Z,99263.72
2023-01-06T20:48:29.510Z,99264.28
2023-01-06T20:51:00.622Z,99262.47
2023-01-06T20:53:28.613Z,99268.28
2023-01-06T20:55:57.951Z,99262.78
2023-01-06T20:58:26.120Z,99263.72
2023-01-06T21:00:54.093Z,99262.06
2023-01-06T21:03:22.141Z,99256.56
2023-01-06T21:05:49.977Z,99256.34
2023-01-06T21:08:17.981Z,99259.81
2023-01-06T21:10:45.946Z,99260.16
2023-01-06T21:13:15.187Z,99264.38
2023-01-06T21:15:43.032Z,99259.00
2023-01-06T21:18:10.991Z,99261.00
2023-01-06T21:20:38.896Z,99249.75
2023-01-06T21:23:06.830Z,99259.41
2023-01-06T21:25:34.828Z,99250.56
2023-01-06T21:28:02.725Z,99259.91
2023-01-06T21:30:32.753Z,99253.69
2023-01-06T21:33:00.828Z,99256.28
2023-01-06T21:35:28.660Z,99253.63
2023-01-06T21:37:56.595Z,99250.91
2023-01-06T21:40:24.506Z,99245.22
2023-01-06T21:43:09.415Z,99253.09
2023-01-06T21:45:42.427Z,99254.41
2023-01-06T21:48:11.600Z,99251.97
2023-01-06T21:50:40.993Z,99257.13
2023-01-06T21:53:10.577Z,99255.13
2023-01-06T21:55:39.171Z,99251.47
2023-01-06T21:58:07.088Z,99257.38
2023-01-06T22:00:34.966Z,99256.13
2023-01-06T22:03:05.296Z,99253.22
2023-01-06T22:05:33.442Z,99255.09
2023-01-06T22:08:01.481Z,99248.28
2023-01-06T22:10:29.506Z,99248.94
2023-01-06T22:12:59.790Z,99242.06
2023-01-06T22:15:29.209Z,99251.34
2023-01-06T22:17:59.880Z,99251.47
2023-01-06T22:20:31.125Z,99244.69
2023-01-06T22:23:02.208Z,99242.56
2023-01-06T22:25:30.153Z,99246.78
2023-01-06T22:27:59.320Z,99246.19
2023-01-06T22:30:27.985Z,99243.41
2023-01-06T22:32:55.851Z,99239.19
2023-01-06T22:35:24.311Z,99239.19
2023-01-06T22:37:53.505Z,99245.38
2023-01-06T22:40:21.608Z,99238.63
2023-01-06T22:42:50.540Z,99249.97
2023-01-06T22:45:18.733Z,99245.00
2023-01-06T22:47:46.609Z,99248.06
2023-01-06T22:50:14.581Z,99247.13
2023-01-06T22:52:42.684Z,99245.97
2023-01-06T22:55:12.931Z,99241.50
2023-01-06T22:57:40.886Z,99248.25
2023-01-06T23:00:13.137Z,99244.47
2023-01-06T23:02:41.200Z,99238.13
2023-01-06T23:05:09.929Z,99239.31
2023-01-06T23:07:39.160Z,99241.09
2023-01-06T23:10:08.517Z,99241.09
2023-01-06T23:12:38.565Z,99240.25
2023-01-06T23:15:08.113Z,99235.59
2023-01-06T23:17:37.389Z,99238.19
2023-01-06T23:20:07.265Z,99230.31
2023-01-06T23:22:35.133Z,99235.19
2023-01-06T23:25:03.163Z,99236.66
2023-01-06T23:27:31.524Z,99232.88
2023-01-06T23:30:01.019Z,99231.19
2023-01-06T23:32:29.950Z,99228.97
2023-01-06T23:34:58.130Z,99234.06
2023-01-06T23:37:26.155Z,99231.16
2023-01-06T23:39:54.348Z,99233.72
2023-01-06T23:42:24.782Z,99231.09
2023-01-06T23:44:52.688Z,99229.50
2023-01-06T23:47:21.977Z,99225.06
2023-01-06T23:49:50.025Z,99232.03
2023-01-06T23:52:17.930Z,99228.66
2023-01-06T23:54:45.743Z,99223.56
2023-01-06T23:57:13.613Z,99221.03
2023-01-06T23:59:41.452Z,99223.13
